Main page
METAR-TAF:

METAR-TAF

Airports :

Laupheim, Germany

Laupheim Air Base

latitude: 48-13N, longitude: 009-55E, elevation: 538 m

Current weather observation

The report was made 1 hour and 9 minutes ago, at 21:20 UTC
Calm wind
Temperature -1°C
Humidity 93%
Pressure 1027 hPa
Visibility 10 km or more
Broken clouds at a height of 1300 ft

METAR: ETHL 182120Z 00000KT 9999 BKN013 M01/M02 Q1027 GRN

Time: 23:29 (22:29 UTC)

Forecast

The report was made 2 hours and 56 minutes ago, at 19:33 UTC
Forecast valid from 18 at 20 UTC to 19 at 03 UTC
Wind 5 kt from the South/Southwest
Visibility: 2000 m
Few clouds at a height of 500 ft
Broken clouds at a height of 1000 ft
Broken clouds at a height of 3000 ft

TAF: ETHL 181933Z 1820/1903 20005KT 9999 NSW FEW005 BKN010 BKN030 CANCEL 2000

Weather observations and forecasts of more than 4000 airports (METAR and TAF reports).

The available stations are represented by yellow and red dots on the map.

Hover mouse over dot to see the name of the station.

Then click to see weather observations and forecasts.

To change the map : click on the green buttons with a black cross to zoom in, on the green button with a dash to zoom out, or on the green arrows for adjacent maps.


METAR-TAF: